createdAt,value
2022-10-15T00:00:31.924Z,13.02
2022-10-15T00:03:18.306Z,13.06
2022-10-15T00:06:11.016Z,13.25
2022-10-15T00:08:57.341Z,13.25
2022-10-15T00:11:43.741Z,13.22
2022-10-15T00:14:30.058Z,13.13
2022-10-15T00:17:16.407Z,13.37
2022-10-15T00:20:04.595Z,13.41
2022-10-15T00:22:51.232Z,13.39
2022-10-15T00:25:38.029Z,13.38
2022-10-15T00:28:24.223Z,13.47
2022-10-15T00:31:13.462Z,13.40
2022-10-15T00:34:01.634Z,13.41
2022-10-15T00:36:50.841Z,13.41
2022-10-15T00:39:37.563Z,13.31
2022-10-15T00:42:23.944Z,13.36
2022-10-15T00:45:13.306Z,13.20
2022-10-15T00:47:59.697Z,13.34
2022-10-15T00:50:46.270Z,13.52
2022-10-15T00:53:32.735Z,13.53
2022-10-15T00:56:21.989Z,13.44
2022-10-15T00:59:09.730Z,13.41
2022-10-15T01:01:56.067Z,13.53
2022-10-15T01:04:43.326Z,13.50
2022-10-15T01:07:29.512Z,13.58
2022-10-15T01:10:16.934Z,13.73
2022-10-15T01:13:07.790Z,13.67
2022-10-15T01:16:04.608Z,13.62
2022-10-15T01:19:42.038Z,13.65
2022-10-15T01:22:52.836Z,13.61
2022-10-15T01:26:12.868Z,13.60
2022-10-15T01:29:17.518Z,13.70
2022-10-15T01:32:16.372Z,13.55
2022-10-15T01:35:25.808Z,13.44
2022-10-15T01:38:27.938Z,13.74
2022-10-15T01:41:27.460Z,13.73
2022-10-15T01:44:20.769Z,13.77
2022-10-15T01:47:42.672Z,13.86
2022-10-15T01:50:33.133Z,13.62
2022-10-15T01:53:26.521Z,13.81
2022-10-15T01:56:19.108Z,13.78
2022-10-15T01:59:06.961Z,13.71
2022-10-15T02:01:56.289Z,13.79
2022-10-15T02:04:44.649Z,13.87
2022-10-15T02:07:56.721Z,13.88
2022-10-15T02:10:47.027Z,13.72
2022-10-15T02:14:07.678Z,13.76
2022-10-15T02:17:06.771Z,13.79
2022-10-15T02:20:00.705Z,13.82
2022-10-15T02:23:09.894Z,13.96
2022-10-15T02:25:58.326Z,13.93
2022-10-15T02:28:50.897Z,13.87
2022-10-15T02:31:41.598Z,13.92
2022-10-15T02:34:32.637Z,13.72
2022-10-15T02:37:24.441Z,13.86
2022-10-15T02:40:11.158Z,13.94
2022-10-15T02:42:57.887Z,13.94
2022-10-15T02:45:44.129Z,13.91
2022-10-15T02:48:30.876Z,13.96
2022-10-15T02:51:17.438Z,13.97
2022-10-15T02:54:05.722Z,13.96
2022-10-15T02:56:52.087Z,13.84
2022-10-15T02:59:40.738Z,13.71
2022-10-15T03:02:28.527Z,14.04
2022-10-15T03:05:15.002Z,13.95
2022-10-15T03:08:02.541Z,14.08
2022-10-15T03:10:50.014Z,13.88
2022-10-15T03:13:37.478Z,13.99
2022-10-15T03:16:24.050Z,13.98
2022-10-15T03:19:10.718Z,13.98
2022-10-15T03:21:57.863Z,13.91
2022-10-15T03:24:47.097Z,13.98
2022-10-15T03:27:34.907Z,14.10
2022-10-15T03:30:21.394Z,13.86
2022-10-15T03:33:07.518Z,14.10
2022-10-15T03:35:54.606Z,14.04
2022-10-15T03:38:41.460Z,14.23
2022-10-15T03:41:32.546Z,14.42
2022-10-15T03:44:19.062Z,14.59
2022-10-15T03:47:16.912Z,14.78
2022-10-15T03:50:06.191Z,14.79
2022-10-15T03:52:52.751Z,14.96
2022-10-15T03:55:39.338Z,15.03
2022-10-15T03:58:25.682Z,15.07
2022-10-15T04:01:18.061Z,15.05
2022-10-15T04:04:04.354Z,15.04
2022-10-15T04:06:50.698Z,15.06
2022-10-15T04:09:38.739Z,15.06
2022-10-15T04:12:43.791Z,15.02
2022-10-15T04:15:33.957Z,14.87
2022-10-15T04:18:24.769Z,14.99
2022-10-15T04:21:14.669Z,15.08
2022-10-15T04:24:04.537Z,15.09
2022-10-15T04:26:57.690Z,15.06
2022-10-15T04:29:44.447Z,15.02
2022-10-15T04:32:35.115Z,15.04
2022-10-15T04:35:21.746Z,15.07
2022-10-15T04:38:27.520Z,15.02
2022-10-15T04:41:18.235Z,14.84
2022-10-15T04:44:16.249Z,15.06
2022-10-15T04:47:08.662Z,15.13
2022-10-15T04:50:03.610Z,15.07
2022-10-15T04:53:09.963Z,14.85
2022-10-15T04:56:10.278Z,15.00
2022-10-15T04:58:56.403Z,15.01
2022-10-15T05:01:45.815Z,15.09
2022-10-15T05:04:32.025Z,14.95
2022-10-15T05:07:18.569Z,14.95
2022-10-15T05:10:07.369Z,15.05
2022-10-15T05:12:56.763Z,15.06
2022-10-15T05:15:50.251Z,15.17
2022-10-15T05:18:41.604Z,15.08
2022-10-15T05:21:29.263Z,15.13
2022-10-15T05:24:19.514Z,15.20
2022-10-15T05:27:19.985Z,15.18
2022-10-15T05:30:06.999Z,15.10
2022-10-15T05:33:03.034Z,15.15
2022-10-15T05:35:49.379Z,15.11
2022-10-15T05:38:37.194Z,14.98
2022-10-15T05:41:24.172Z,14.98
2022-10-15T05:44:10.424Z,14.93
2022-10-15T05:46:57.603Z,14.97
2022-10-15T05:49:44.128Z,14.81
2022-10-15T05:52:40.535Z,14.79
2022-10-15T05:55:38.535Z,14.83
2022-10-15T05:58:25.981Z,14.84
2022-10-15T06:01:13.198Z,14.97
2022-10-15T06:04:01.739Z,15.07
2022-10-15T06:06:50.260Z,15.00
2022-10-15T06:09:36.829Z,15.00
2022-10-15T06:12:23.054Z,14.91
2022-10-15T06:15:09.851Z,14.90
2022-10-15T06:17:56.183Z,14.85
2022-10-15T06:20:43.938Z,15.04
2022-10-15T06:23:30.618Z,14.55
2022-10-15T06:26:17.156Z,15.04
2022-10-15T06:29:08.106Z,15.03
2022-10-15T06:31:54.255Z,14.97
2022-10-15T06:34:40.817Z,14.90
2022-10-15T06:37:29.178Z,15.04
2022-10-15T06:40:18.665Z,15.04
2022-10-15T06:43:10.412Z,15.02
2022-10-15T06:45:59.470Z,15.17
2022-10-15T06:48:46.067Z,15.23
2022-10-15T06:51:32.494Z,15.22
2022-10-15T06:54:18.772Z,15.22
2022-10-15T06:57:05.033Z,15.20
2022-10-15T06:59:52.003Z,15.08
2022-10-15T07:02:38.538Z,15.19
2022-10-15T07:05:24.710Z,15.24
2022-10-15T07:08:14.160Z,15.31
2022-10-15T07:11:05.066Z,15.32
2022-10-15T07:13:51.348Z,15.41
2022-10-15T07:16:39.756Z,15.31
2022-10-15T07:19:26.372Z,15.20
2022-10-15T07:22:12.926Z,15.35
2022-10-15T07:24:59.440Z,15.44
2022-10-15T07:27:45.626Z,15.51
2022-10-15T07:30:32.413Z,15.62
2022-10-15T07:33:18.830Z,15.58
2022-10-15T07:36:17.977Z,15.58
2022-10-15T07:39:04.284Z,15.19
2022-10-15T07:41:51.397Z,15.39
2022-10-15T07:44:37.650Z,15.58
2022-10-15T07:47:29.514Z,15.63
2022-10-15T07:50:16.737Z,15.63
2022-10-15T07:53:04.042Z,15.46
2022-10-15T07:55:50.959Z,15.69
2022-10-15T07:58:38.854Z,15.55
2022-10-15T08:01:25.499Z,15.65
2022-10-15T08:04:11.882Z,15.67
2022-10-15T08:06:59.922Z,15.67
2022-10-15T08:12:37.770Z,15.58
2022-10-15T08:15:24.214Z,15.79
2022-10-15T08:18:11.030Z,15.72
2022-10-15T08:21:01.339Z,15.92
2022-10-15T08:23:47.758Z,15.96
2022-10-15T08:26:34.762Z,15.90
2022-10-15T08:29:21.549Z,15.83
2022-10-15T08:32:07.747Z,15.88
2022-10-15T08:34:54.026Z,16.12
2022-10-15T08:37:40.260Z,15.89
2022-10-15T08:40:27.154Z,15.99
2022-10-15T08:43:22.237Z,15.99
2022-10-15T08:49:21.731Z,16.11
2022-10-15T08:52:36.634Z,16.14
2022-10-15T08:58:44.787Z,16.29
2022-10-15T09:01:57.329Z,16.33
2022-10-15T09:05:09.710Z,16.22
2022-10-15T09:08:20.518Z,16.31
2022-10-15T09:11:23.580Z,16.31
2022-10-15T09:14:14.276Z,16.33
2022-10-15T09:17:07.822Z,16.42
2022-10-15T09:19:56.614Z,16.58
2022-10-15T09:22:43.172Z,16.70
2022-10-15T09:25:37.947Z,16.71
2022-10-15T09:28:40.778Z,17.10
2022-10-15T09:31:43.718Z,17.26
2022-10-15T09:34:44.797Z,17.07
2022-10-15T09:37:40.734Z,17.32
2022-10-15T09:40:33.538Z,17.39
2022-10-15T09:43:30.673Z,17.61
2022-10-15T09:46:17.357Z,17.67
2022-10-15T09:49:21.161Z,17.63
2022-10-15T09:52:24.332Z,17.91
2022-10-15T09:55:30.407Z,17.81
2022-10-15T09:58:23.243Z,17.71
2022-10-15T10:01:19.216Z,17.84
2022-10-15T10:04:11.393Z,18.02
2022-10-15T10:07:01.963Z,18.14
2022-10-15T10:09:55.740Z,18.01
2022-10-15T10:12:43.684Z,18.14
2022-10-15T10:15:41.069Z,18.27
2022-10-15T10:18:27.772Z,18.50
2022-10-15T10:21:30.826Z,18.59
2022-10-15T10:24:24.254Z,18.84
2022-10-15T10:27:36.866Z,19.08
2022-10-15T10:30:23.608Z,19.04
2022-10-15T10:33:15.082Z,19.28
2022-10-15T10:36:02.314Z,19.22
2022-10-15T10:39:34.784Z,19.57
2022-10-15T10:42:28.196Z,19.45
2022-10-15T10:45:23.301Z,19.40
2022-10-15T10:48:40.955Z,19.31
2022-10-15T10:51:28.129Z,19.29
2022-10-15T10:54:16.538Z,19.04
2022-10-15T10:57:10.486Z,18.93
2022-10-15T10:59:58.856Z,19.15
2022-10-15T11:02:45.784Z,19.28
2022-10-15T11:05:39.963Z,19.44
2022-10-15T11:09:05.440Z,19.59
2022-10-15T11:12:04.861Z,19.75
2022-10-15T11:15:03.924Z,19.49
2022-10-15T11:18:12.286Z,19.64
2022-10-15T11:21:08.091Z,19.72
2022-10-15T11:24:10.100Z,19.72
2022-10-15T11:27:15.244Z,19.87
2022-10-15T11:30:36.993Z,19.78
2022-10-15T11:33:48.753Z,20.03
2022-10-15T11:37:00.114Z,20.18
2022-10-15T11:40:06.702Z,20.03
2022-10-15T11:43:03.338Z,19.76
2022-10-15T11:46:03.338Z,19.65
2022-10-15T11:49:17.316Z,19.46
2022-10-15T11:52:07.075Z,19.22
2022-10-15T11:55:08.840Z,19.10
2022-10-15T11:58:00.884Z,18.97
2022-10-15T12:00:51.852Z,18.80
2022-10-15T12:04:11.148Z,18.63
2022-10-15T12:07:01.259Z,18.64
2022-10-15T12:09:53.262Z,18.45
2022-10-15T12:12:54.108Z,18.42
2022-10-15T12:15:55.243Z,18.33
2022-10-15T12:18:57.153Z,18.26
2022-10-15T12:21:55.602Z,18.53
2022-10-15T12:24:48.305Z,18.78
2022-10-15T12:27:36.539Z,18.82
2022-10-15T12:30:26.750Z,18.78
2022-10-15T12:33:33.555Z,19.12
2022-10-15T12:36:19.524Z,19.20
2022-10-15T12:39:47.756Z,19.11
2022-10-15T12:42:38.845Z,18.80
2022-10-15T12:45:39.055Z,18.87
2022-10-15T12:48:48.565Z,18.45
2022-10-15T12:51:35.272Z,18.52
2022-10-15T12:54:43.195Z,18.68
2022-10-15T12:57:30.615Z,18.55
2022-10-15T13:00:26.105Z,18.47
2022-10-15T13:03:15.549Z,18.38
2022-10-15T13:06:23.558Z,18.08
2022-10-15T13:09:09.723Z,18.33
2022-10-15T13:11:59.265Z,18.24
2022-10-15T13:14:53.718Z,18.14
2022-10-15T13:17:40.183Z,18.18
2022-10-15T13:20:36.602Z,18.25
2022-10-15T13:23:30.392Z,18.25
2022-10-15T13:26:25.414Z,18.17
2022-10-15T13:29:16.530Z,18.02
2022-10-15T13:32:03.477Z,18.21
2022-10-15T13:34:50.241Z,18.14
2022-10-15T13:37:39.785Z,18.24
2022-10-15T13:40:28.130Z,18.17
2022-10-15T13:43:19.189Z,18.06
2022-10-15T13:46:05.781Z,18.07
2022-10-15T13:49:16.969Z,18.05
2022-10-15T13:52:04.171Z,18.13
2022-10-15T13:54:50.397Z,18.10
2022-10-15T13:57:36.555Z,17.82
2022-10-15T14:00:27.885Z,18.12
2022-10-15T14:03:15.987Z,18.05
2022-10-15T14:06:16.591Z,17.87
2022-10-15T14:09:26.890Z,17.83
2022-10-15T14:12:13.354Z,17.71
2022-10-15T14:15:38.186Z,17.61
2022-10-15T14:18:35.104Z,17.44
2022-10-15T14:21:31.890Z,17.27
2022-10-15T14:24:23.641Z,17.14
2022-10-15T14:27:27.735Z,17.31
2022-10-15T14:30:26.850Z,17.39
2022-10-15T14:33:38.369Z,17.35
2022-10-15T14:36:28.293Z,17.27
2022-10-15T14:39:33.213Z,17.34
2022-10-15T14:42:27.682Z,17.38
2022-10-15T14:45:14.242Z,17.40
2022-10-15T14:48:07.631Z,17.43
2022-10-15T14:50:59.153Z,17.39
2022-10-15T14:53:47.124Z,17.37
2022-10-15T14:56:33.785Z,17.49
2022-10-15T14:59:29.695Z,17.23
2022-10-15T15:02:16.665Z,17.12
2022-10-15T15:05:30.195Z,17.20
2022-10-15T15:08:16.878Z,17.09
2022-10-15T15:11:06.728Z,16.97
2022-10-15T15:13:53.941Z,16.96
2022-10-15T15:16:40.404Z,16.99
2022-10-15T15:19:26.967Z,17.03
2022-10-15T15:22:16.178Z,16.96
2022-10-15T15:25:10.555Z,17.22
2022-10-15T15:27:57.871Z,16.84
2022-10-15T15:30:45.101Z,17.15
2022-10-15T15:33:32.729Z,16.92
2022-10-15T15:36:22.560Z,16.73
2022-10-15T15:39:10.064Z,16.76
2022-10-15T15:41:56.294Z,16.64
2022-10-15T15:44:42.903Z,16.26
2022-10-15T15:47:29.055Z,16.21
2022-10-15T15:50:16.580Z,16.33
2022-10-15T15:53:03.422Z,16.28
2022-10-15T15:55:49.541Z,16.21
2022-10-15T15:58:35.577Z,16.12
2022-10-15T16:01:22.126Z,15.90
2022-10-15T16:04:08.722Z,16.05
2022-10-15T16:06:54.976Z,15.98
2022-10-15T16:09:41.702Z,15.96
2022-10-15T16:12:27.819Z,15.93
2022-10-15T16:15:15.514Z,15.87
2022-10-15T16:18:01.762Z,15.67
2022-10-15T16:20:48.978Z,15.80
2022-10-15T16:23:35.296Z,15.66
2022-10-15T16:26:21.726Z,15.57
2022-10-15T16:29:07.887Z,15.41
2022-10-15T16:31:54.130Z,15.30
2022-10-15T16:34:40.538Z,15.30
2022-10-15T16:37:27.180Z,15.05
2022-10-15T16:40:15.598Z,14.99
2022-10-15T16:43:01.921Z,15.04
2022-10-15T16:45:57.544Z,15.03
2022-10-15T16:48:44.623Z,14.89
2022-10-15T16:54:21.758Z,14.99
2022-10-15T16:57:07.966Z,14.99
2022-10-15T16:59:54.191Z,15.10
2022-10-15T17:02:40.341Z,15.24
2022-10-15T17:05:26.514Z,15.46
2022-10-15T17:08:14.566Z,15.35
2022-10-15T17:11:01.012Z,15.61
2022-10-15T17:13:49.582Z,15.41
2022-10-15T17:16:40.243Z,15.54
2022-10-15T17:19:29.197Z,15.39
2022-10-15T17:22:18.076Z,15.41
2022-10-15T17:25:04.672Z,15.46
2022-10-15T17:27:52.400Z,15.55
2022-10-15T17:30:38.947Z,15.40
2022-10-15T17:33:25.286Z,15.23
2022-10-15T17:36:18.090Z,15.10
2022-10-15T17:39:04.722Z,15.13
2022-10-15T17:41:51.944Z,15.01
2022-10-15T17:44:38.188Z,14.91
2022-10-15T17:47:24.721Z,15.01
2022-10-15T17:50:14.166Z,14.83
2022-10-15T17:53:03.013Z,14.90
2022-10-15T17:55:49.263Z,15.03
2022-10-15T17:58:35.785Z,15.07
2022-10-15T18:01:33.709Z,14.98
2022-10-15T18:04:27.140Z,15.02
2022-10-15T18:07:17.257Z,14.90
2022-10-15T18:10:03.582Z,14.80
2022-10-15T18:12:50.704Z,14.60
2022-10-15T18:15:38.761Z,14.65
2022-10-15T18:18:25.867Z,14.64
2022-10-15T18:21:16.402Z,14.67
2022-10-15T18:24:03.034Z,14.62
2022-10-15T18:26:52.676Z,14.67
2022-10-15T18:29:39.766Z,14.66
2022-10-15T18:32:26.147Z,14.70
2022-10-15T18:35:12.746Z,14.47
2022-10-15T18:37:58.826Z,14.51
2022-10-15T18:40:45.441Z,14.63
2022-10-15T18:43:31.538Z,14.48
2022-10-15T18:46:18.034Z,14.55
2022-10-15T18:49:05.485Z,14.50
2022-10-15T18:51:52.806Z,14.51
2022-10-15T18:54:39.141Z,14.45
2022-10-15T18:57:25.288Z,14.60
2022-10-15T19:00:12.707Z,14.62
2022-10-15T19:02:59.762Z,14.60
2022-10-15T19:05:48.317Z,14.61
2022-10-15T19:08:34.676Z,14.58
2022-10-15T19:11:20.933Z,14.49
2022-10-15T19:14:07.522Z,14.58
2022-10-15T19:16:55.375Z,14.59
2022-10-15T19:19:42.474Z,14.45
2022-10-15T19:22:30.000Z,14.46
2022-10-15T19:25:17.082Z,14.38
2022-10-15T19:28:05.181Z,14.33
2022-10-15T19:31:00.035Z,14.47
2022-10-15T19:33:46.600Z,14.50
2022-10-15T19:36:36.669Z,14.48
2022-10-15T19:39:24.084Z,14.48
2022-10-15T19:42:10.293Z,14.49
2022-10-15T19:44:56.694Z,14.51
2022-10-15T19:47:43.164Z,14.31
2022-10-15T19:50:29.331Z,14.41
2022-10-15T19:53:17.881Z,14.47
2022-10-15T19:56:07.695Z,14.34
2022-10-15T19:58:55.802Z,14.23
2022-10-15T20:01:42.352Z,14.19
2022-10-15T20:04:28.726Z,14.18
2022-10-15T20:07:14.993Z,14.04
2022-10-15T20:10:01.918Z,13.92
2022-10-15T20:12:48.255Z,13.98
2022-10-15T20:15:34.988Z,14.18
2022-10-15T20:18:22.028Z,14.27
2022-10-15T20:21:10.250Z,14.12
2022-10-15T20:23:56.444Z,14.28
2022-10-15T20:26:42.870Z,14.29
2022-10-15T20:29:29.381Z,14.24
2022-10-15T20:32:30.346Z,14.27
2022-10-15T20:35:21.023Z,14.26
2022-10-15T20:38:07.486Z,14.30
2022-10-15T20:40:53.991Z,14.16
2022-10-15T20:43:41.498Z,14.31
2022-10-15T20:46:33.133Z,14.13
2022-10-15T20:49:24.417Z,14.03
2022-10-15T20:52:11.019Z,14.16
2022-10-15T20:54:57.069Z,14.13
2022-10-15T20:57:43.785Z,14.13
2022-10-15T21:00:29.973Z,14.05
2022-10-15T21:03:16.285Z,14.05
2022-10-15T21:06:02.965Z,14.08
2022-10-15T21:08:49.272Z,14.09
2022-10-15T21:11:40.206Z,14.06
2022-10-15T21:14:26.416Z,13.99
2022-10-15T21:17:13.190Z,13.94
2022-10-15T21:20:00.186Z,13.93
2022-10-15T21:22:46.393Z,14.00
2022-10-15T21:25:34.044Z,14.00
2022-10-15T21:28:20.345Z,13.98
2022-10-15T21:31:15.056Z,14.15
2022-10-15T21:34:01.486Z,14.31
2022-10-15T21:36:47.687Z,14.28
2022-10-15T21:39:34.159Z,14.24
2022-10-15T21:42:20.338Z,14.19
2022-10-15T21:45:07.071Z,14.33
2022-10-15T21:47:53.514Z,14.21
2022-10-15T21:50:40.284Z,14.27
2022-10-15T21:53:26.505Z,14.09
2022-10-15T21:56:13.477Z,14.20
2022-10-15T21:59:00.264Z,14.16
2022-10-15T22:01:46.604Z,14.08
2022-10-15T22:04:34.595Z,14.15
2022-10-15T22:07:21.230Z,14.05
2022-10-15T22:10:07.761Z,14.05
2022-10-15T22:12:54.194Z,13.93
2022-10-15T22:15:40.494Z,14.09
2022-10-15T22:18:26.959Z,14.12
2022-10-15T22:21:16.086Z,14.14
2022-10-15T22:24:05.526Z,14.17
2022-10-15T22:26:53.289Z,14.15
2022-10-15T22:29:41.053Z,14.16
2022-10-15T22:32:28.070Z,14.02
2022-10-15T22:35:14.597Z,13.84
2022-10-15T22:38:00.770Z,14.04
2022-10-15T22:40:54.702Z,13.93
2022-10-15T22:43:41.839Z,13.98
2022-10-15T22:46:28.440Z,13.98
2022-10-15T22:49:15.797Z,14.04
2022-10-15T22:52:02.270Z,13.94
2022-10-15T22:54:50.225Z,13.97
2022-10-15T22:57:36.626Z,14.05
2022-10-15T23:00:22.813Z,13.91
2022-10-15T23:03:08.867Z,13.99
2022-10-15T23:05:56.258Z,13.83
2022-10-15T23:08:43.479Z,13.89
2022-10-15T23:11:32.339Z,13.99
2022-10-15T23:14:18.746Z,13.81
2022-10-15T23:17:05.130Z,13.69
2022-10-15T23:19:51.291Z,13.69
2022-10-15T23:22:37.721Z,13.75
2022-10-15T23:25:24.195Z,13.63
2022-10-15T23:28:10.523Z,13.65
2022-10-15T23:30:56.969Z,13.66
2022-10-15T23:33:43.430Z,13.44
2022-10-15T23:36:30.302Z,13.51
2022-10-15T23:39:21.997Z,13.47
2022-10-15T23:42:08.230Z,13.34
2022-10-15T23:44:56.401Z,13.33
2022-10-15T23:47:42.693Z,13.44
2022-10-15T23:50:36.546Z,13.40
2022-10-15T23:53:22.995Z,13.20
2022-10-15T23:56:09.482Z,13.20
2022-10-15T23:58:58.317Z,13.46
